createdAt,value
2022-12-10T08:20:41.517Z,99940.97
2022-12-10T08:23:12.265Z,99937.88
2022-12-10T08:25:42.764Z,99939.02
2022-12-10T08:28:13.008Z,99941.65
2022-12-10T08:30:43.007Z,99941.02
2022-12-10T08:33:13.504Z,99940.86
2022-12-10T08:35:44.390Z,99940.64
2022-12-10T08:38:14.712Z,99941.98
2022-12-10T08:40:45.742Z,99941.13
2022-12-10T08:43:16.223Z,99945.15
2022-12-10T08:45:46.580Z,99949.02
2022-12-10T08:48:17.083Z,99951.23
2022-12-10T08:50:48.072Z,99950.98
2022-12-10T08:53:18.618Z,99947.51
2022-12-10T08:55:51.970Z,99947.98
2022-12-10T08:58:23.614Z,99946.42
2022-12-10T09:00:54.188Z,99947.08
2022-12-10T09:03:25.160Z,99945.81
2022-12-10T09:05:55.875Z,99942.29
2022-12-10T09:08:26.259Z,99937.83
2022-12-10T09:10:58.062Z,99935.77
2022-12-10T09:13:28.654Z,99936.94
2022-12-10T09:15:58.978Z,99936.76
2022-12-10T09:18:29.416Z,99942.54
2022-12-10T09:21:00.065Z,99945.04
2022-12-10T09:23:30.404Z,99943.55
2022-12-10T09:26:00.618Z,99940.48
2022-12-10T09:28:30.804Z,99940.21
2022-12-10T09:31:01.585Z,99936.45
2022-12-10T09:33:31.820Z,99935.05
2022-12-10T09:36:02.165Z,99938.86
2022-12-10T09:38:32.744Z,99934.70
2022-12-10T09:41:26.845Z,99936.16
2022-12-10T09:44:11.728Z,99935.88
2022-12-10T09:47:05.368Z,99933.23
2022-12-10T09:50:05.622Z,99934.80
2022-12-10T09:52:45.074Z,99933.12
2022-12-10T09:55:18.313Z,99930.78
2022-12-10T09:57:54.981Z,99933.56
2022-12-10T10:00:47.524Z,99936.69
2022-12-10T10:03:19.235Z,99933.80
2022-12-10T10:05:54.886Z,99935.41
2022-12-10T10:08:41.245Z,99933.44
2022-12-10T10:11:20.355Z,99939.66
2022-12-10T10:13:58.126Z,99942.28
2022-12-10T10:16:34.978Z,99935.78
2022-12-10T10:19:17.367Z,99937.27
2022-12-10T10:21:52.940Z,99939.18
2022-12-10T10:24:37.734Z,99931.07
2022-12-10T10:27:32.144Z,99930.30
2022-12-10T10:30:06.790Z,99927.00
2022-12-10T10:32:40.461Z,99927.98
2022-12-10T10:35:24.412Z,99930.11
2022-12-10T10:38:00.763Z,99929.10
2022-12-10T10:40:47.200Z,99931.33
2022-12-10T10:43:51.351Z,99927.08
2022-12-10T10:46:28.448Z,99928.07
2022-12-10T10:49:19.263Z,99928.17
2022-12-10T10:51:50.091Z,99928.84
2022-12-10T10:54:48.688Z,99925.71
2022-12-10T10:57:28.453Z,99924.60
2022-12-10T11:00:09.481Z,99923.73
2022-12-10T11:02:44.771Z,99921.81
2022-12-10T11:05:36.148Z,99923.29
2022-12-10T11:08:15.247Z,99921.32
2022-12-10T11:11:03.212Z,99923.30
2022-12-10T11:13:37.760Z,99914.98
2022-12-10T11:16:27.814Z,99919.05
2022-12-10T11:19:03.655Z,99916.52
2022-12-10T11:21:36.673Z,99916.52
2022-12-10T11:24:14.531Z,99907.73
2022-12-10T11:27:03.156Z,99904.17
2022-12-10T11:29:42.377Z,99901.15
2022-12-10T11:32:38.422Z,99898.90
2022-12-10T11:35:16.695Z,99900.05
2022-12-10T11:38:11.203Z,99898.42
2022-12-10T11:41:01.293Z,99899.87
2022-12-10T11:43:53.947Z,99896.12
2022-12-10T11:46:33.554Z,99893.83
2022-12-10T11:49:25.998Z,99900.80
2022-12-10T11:52:05.667Z,99903.59
2022-12-10T11:55:02.656Z,99908.15
2022-12-10T11:57:48.021Z,99906.69
2022-12-10T12:00:34.287Z,99902.20
2022-12-10T12:03:50.756Z,99902.94
2022-12-10T12:06:40.145Z,99897.60
2022-12-10T12:09:10.394Z,99895.40
2022-12-10T12:11:59.882Z,99896.94
2022-12-10T12:14:48.251Z,99896.79
2022-12-10T12:17:35.372Z,99900.16
2022-12-10T12:20:18.892Z,99899.88
2022-12-10T12:23:05.297Z,99898.79
2022-12-10T12:25:41.558Z,99893.65
2022-12-10T12:28:25.779Z,99892.41
2022-12-10T12:31:08.562Z,99893.05
2022-12-10T12:34:17.627Z,99895.90
2022-12-10T12:36:48.629Z,99891.28
2022-12-10T12:39:25.626Z,99889.81
2022-12-10T12:42:10.735Z,99887.50
2022-12-10T12:44:59.100Z,99896.90
2022-12-10T12:48:01.384Z,99896.96
2022-12-10T12:50:40.665Z,99897.91
2022-12-10T12:53:26.212Z,99899.65
2022-12-10T12:56:12.604Z,99903.73
2022-12-10T12:58:51.863Z,99905.33
2022-12-10T13:01:31.204Z,99914.09
2022-12-10T13:04:03.981Z,99919.45
2022-12-10T13:06:45.822Z,99919.92
2022-12-10T13:09:16.502Z,99919.71
2022-12-10T13:12:08.679Z,99922.41
2022-12-10T13:15:03.291Z,99927.77
2022-12-10T13:17:41.089Z,99927.48
2022-12-10T13:20:29.880Z,99930.48
2022-12-10T13:23:27.576Z,99932.68
2022-12-10T13:26:00.646Z,99933.61
2022-12-10T13:28:40.845Z,99931.80
2022-12-10T13:31:17.472Z,99933.27
2022-12-10T13:34:07.216Z,99936.79
2022-12-10T13:36:44.012Z,99931.80
2022-12-10T13:39:34.487Z,99934.94
2022-12-10T13:42:25.076Z,99938.42
2022-12-10T13:45:26.826Z,99938.41
2022-12-10T13:48:25.665Z,99938.38
2022-12-10T13:51:13.295Z,99937.82
2022-12-10T13:54:07.668Z,99940.83
2022-12-10T13:57:12.056Z,99943.48
2022-12-10T14:00:07.879Z,99944.80
2022-12-10T14:02:56.847Z,99947.98
2022-12-10T14:05:41.457Z,99942.64
2022-12-10T14:08:20.209Z,99944.86
2022-12-10T14:10:51.104Z,99940.83
2022-12-10T14:13:24.965Z,99938.04
2022-12-10T14:15:58.497Z,99942.19
2022-12-10T14:18:31.744Z,99937.30
2022-12-10T14:21:08.277Z,99948.80
2022-12-10T14:23:45.645Z,99949.76
2022-12-10T14:26:17.627Z,99955.92
2022-12-10T14:28:53.273Z,99951.77
2022-12-10T14:31:30.839Z,99956.83
2022-12-10T14:34:08.151Z,99950.81
2022-12-10T14:36:47.475Z,99952.94
2022-12-10T14:39:21.300Z,99955.20
2022-12-10T14:41:55.225Z,99961.02
2022-12-10T14:44:25.738Z,99960.86
2022-12-10T14:47:11.258Z,99963.73
2022-12-10T14:49:45.125Z,99964.73
2022-12-10T14:52:18.783Z,99962.14
2022-12-10T14:54:50.780Z,99964.48
2022-12-10T14:57:33.050Z,99965.77
2022-12-10T15:00:10.672Z,99971.90
2022-12-10T15:02:45.785Z,99974.98
2022-12-10T15:05:24.874Z,99974.51
2022-12-10T15:08:01.805Z,99974.79
2022-12-10T15:10:44.345Z,99976.68
2022-12-10T15:13:43.717Z,99977.41
2022-12-10T15:16:30.718Z,99976.41
2022-12-10T15:19:32.991Z,99977.45
2022-12-10T15:22:19.362Z,99979.43
2022-12-10T15:24:57.054Z,99980.71
2022-12-10T15:27:30.140Z,99977.41
2022-12-10T15:30:02.042Z,99976.25
2022-12-10T15:32:34.172Z,99970.24
2022-12-10T15:35:16.739Z,99964.89
2022-12-10T15:37:58.301Z,99961.89
2022-12-10T15:40:34.599Z,99959.17
2022-12-10T15:43:29.462Z,99958.54
2022-12-10T15:46:03.880Z,99959.41
2022-12-10T15:48:40.266Z,99957.88
2022-12-10T15:51:13.633Z,99951.06
2022-12-10T15:53:45.297Z,99949.81
2022-12-10T15:56:23.963Z,99949.70
2022-12-10T15:58:56.669Z,99948.98
2022-12-10T16:01:28.247Z,99950.61
2022-12-10T16:03:59.860Z,99947.41
2022-12-10T16:06:33.108Z,99949.48
2022-12-10T16:09:04.012Z,99949.77
2022-12-10T16:11:36.380Z,99953.40
2022-12-10T16:14:10.017Z,99955.71
2022-12-10T16:16:44.277Z,99954.98
2022-12-10T16:19:18.901Z,99956.61
2022-12-10T16:21:51.212Z,99960.33
2022-12-10T16:24:23.672Z,99960.40
2022-12-10T16:27:00.032Z,99958.45
2022-12-10T16:29:31.915Z,99956.99
2022-12-10T16:32:05.770Z,99956.58
2022-12-10T16:34:38.463Z,99962.58
2022-12-10T16:37:10.927Z,99964.86
2022-12-10T16:39:50.713Z,99965.16
2022-12-10T16:42:25.083Z,99962.19
2022-12-10T16:45:02.552Z,99958.89
2022-12-10T16:47:41.184Z,99960.39
2022-12-10T16:50:15.955Z,99965.41
2022-12-10T16:52:50.264Z,99973.48
2022-12-10T16:55:25.836Z,99975.33
2022-12-10T16:57:57.378Z,99976.39
2022-12-10T17:00:29.602Z,99975.40
2022-12-10T17:03:08.112Z,99977.88
2022-12-10T17:05:45.025Z,99982.86
2022-12-10T17:08:16.523Z,99988.44
2022-12-10T17:11:05.527Z,99995.52
2022-12-10T17:13:38.405Z,100000.96
2022-12-10T17:16:09.434Z,100003.45
2022-12-10T17:18:40.526Z,100003.61
2022-12-10T17:21:11.797Z,100005.04
2022-12-10T17:23:42.592Z,100006.00
2022-12-10T17:26:29.752Z,100010.73
2022-12-10T17:29:06.458Z,100013.60
2022-12-10T17:31:41.180Z,100017.95
2022-12-10T17:34:15.021Z,100017.83
2022-12-10T17:36:46.712Z,100015.86
2022-12-10T17:39:24.249Z,100018.52
2022-12-10T17:41:55.327Z,100016.86
2022-12-10T17:44:28.012Z,100014.88
2022-12-10T17:47:00.306Z,100018.36
2022-12-10T17:49:32.807Z,100024.33
2022-12-10T17:52:04.215Z,100024.86
2022-12-10T17:54:36.941Z,100026.86
2022-12-10T17:57:24.248Z,100028.26
2022-12-10T17:59:55.390Z,100032.23
2022-12-10T18:02:28.285Z,100027.24
2022-12-10T18:05:00.786Z,100026.33
2022-12-10T18:07:34.275Z,100027.42
2022-12-10T18:10:09.582Z,100022.77
2022-12-10T18:12:43.404Z,100021.30
2022-12-10T18:15:15.620Z,100019.52
2022-12-10T18:17:47.784Z,100023.96
2022-12-10T18:20:29.464Z,100027.66
2022-12-10T18:23:02.422Z,100028.83
2022-12-10T18:25:33.829Z,100025.11
2022-12-10T18:28:23.741Z,100024.36
2022-12-10T18:31:00.758Z,100025.45
2022-12-10T18:33:49.600Z,100031.27
2022-12-10T18:36:27.303Z,100034.16
2022-12-10T18:39:00.025Z,100034.86
2022-12-10T18:41:30.889Z,100028.42
2022-12-10T18:44:05.333Z,100025.69
2022-12-10T18:46:40.483Z,100020.39
2022-12-10T18:49:15.476Z,100021.13
2022-12-10T18:51:46.317Z,100024.64
2022-12-10T18:54:17.376Z,100022.00
2022-12-10T18:57:31.330Z,100026.28
2022-12-10T18:59:45.372Z,100030.93
2022-12-10T19:02:21.024Z,100030.51
2022-12-10T19:04:53.214Z,100026.20
2022-12-10T19:07:25.765Z,100020.21
2022-12-10T19:09:57.995Z,100021.39
2022-12-10T19:12:30.585Z,100020.13
2022-12-10T19:15:06.237Z,100017.30
2022-12-10T19:17:47.324Z,100020.05
2022-12-10T19:20:27.483Z,100017.61
2022-12-10T19:23:01.442Z,100016.16
2022-12-10T19:25:38.175Z,100016.40
2022-12-10T19:28:19.181Z,100014.75
2022-12-10T19:30:52.816Z,100016.62
2022-12-10T19:33:24.847Z,100020.42
2022-12-10T19:35:58.651Z,100018.61
2022-12-10T19:38:31.180Z,100017.23
2022-12-10T19:41:03.882Z,100020.22
2022-12-10T19:43:39.953Z,100019.53
2022-12-10T19:46:20.042Z,100020.91
2022-12-10T19:48:56.434Z,100022.58
2022-12-10T19:51:32.667Z,100025.73
2022-12-10T19:54:10.505Z,100030.84
2022-12-10T19:56:46.172Z,100027.59
2022-12-10T19:59:21.307Z,100018.61
2022-12-10T20:01:53.439Z,100011.05
2022-12-10T20:04:27.743Z,100008.97
2022-12-10T20:07:00.197Z,100008.46
2022-12-10T20:09:38.103Z,100005.19
2022-12-10T20:12:12.111Z,100005.92
2022-12-10T20:14:48.938Z,100004.21
2022-12-10T20:17:25.762Z,100002.56
2022-12-10T20:19:58.245Z,99996.88
2022-12-10T20:22:32.177Z,99985.60
2022-12-10T20:25:08.641Z,99985.62
2022-12-10T20:27:43.513Z,99988.22
2022-12-10T20:30:23.962Z,99989.80
2022-12-10T20:32:57.613Z,99988.14
2022-12-10T20:35:42.948Z,99990.08
2022-12-10T20:38:16.856Z,99992.36
2022-12-10T20:40:49.766Z,99997.66
2022-12-10T20:43:26.162Z,99994.83
2022-12-10T20:46:05.280Z,99998.44
2022-12-10T20:48:42.050Z,100002.54
2022-12-10T20:51:17.217Z,100006.91
2022-12-10T20:53:52.305Z,100003.38
2022-12-10T20:56:28.615Z,100007.21
2022-12-10T20:59:00.247Z,100003.93
2022-12-10T21:01:34.113Z,100004.25
2022-12-10T21:04:07.764Z,100002.52
2022-12-10T21:06:39.141Z,100002.28
2022-12-10T21:09:11.899Z,100000.51
2022-12-10T21:11:46.236Z,99991.70
2022-12-10T21:14:52.290Z,99994.39
2022-12-10T21:17:10.089Z,99995.48
2022-12-10T21:19:44.118Z,99993.95
2022-12-10T21:22:17.381Z,99994.12
2022-12-10T21:24:52.361Z,99996.50
2022-12-10T21:27:26.274Z,100000.27
2022-12-10T21:29:57.773Z,100002.25
2022-12-10T21:32:34.505Z,100003.40
2022-12-10T21:35:07.369Z,99998.88
2022-12-10T21:37:40.097Z,99995.52
2022-12-10T21:40:13.576Z,99998.84
2022-12-10T21:43:03.266Z,99996.09
2022-12-10T21:45:35.080Z,99991.20
2022-12-10T21:48:07.795Z,99993.27
2022-12-10T21:50:40.492Z,99987.42
2022-12-10T21:53:14.727Z,99988.86
2022-12-10T21:55:49.584Z,99980.86
2022-12-10T21:58:21.527Z,99981.63
2022-12-10T22:00:59.507Z,99982.52
2022-12-10T22:03:30.530Z,99982.80
2022-12-10T22:06:05.211Z,99982.02
2022-12-10T22:08:36.397Z,99982.16
2022-12-10T22:11:10.174Z,99980.89
2022-12-10T22:13:40.970Z,99985.23
2022-12-10T22:16:12.807Z,99989.13
2022-12-10T22:18:43.487Z,99984.51
2022-12-10T22:21:14.638Z,99988.85
2022-12-10T22:23:45.339Z,99987.02
2022-12-10T22:26:15.605Z,99980.18
2022-12-10T22:28:46.305Z,99976.64
2022-12-10T22:31:16.779Z,99976.28
2022-12-10T22:33:47.512Z,99980.18
2022-12-10T22:36:18.905Z,99978.70
2022-12-10T22:38:51.420Z,99977.34
2022-12-10T22:41:21.849Z,99979.79
2022-12-10T22:43:52.909Z,99982.02
2022-12-10T22:46:23.387Z,99981.11
2022-12-10T22:48:54.364Z,99973.79
2022-12-10T22:51:24.608Z,99971.68
2022-12-10T22:53:56.245Z,99965.15
2022-12-10T22:56:26.601Z,99971.14
2022-12-10T22:58:58.616Z,99971.66
2022-12-10T23:01:30.322Z,99963.23
2022-12-10T23:04:00.825Z,99957.57
2022-12-10T23:06:31.606Z,99948.61
2022-12-10T23:09:02.133Z,99945.65
2022-12-10T23:11:32.573Z,99949.80
2022-12-10T23:14:02.920Z,99950.91
2022-12-10T23:16:33.855Z,99949.59
2022-12-10T23:19:04.914Z,99937.59
2022-12-10T23:21:37.937Z,99934.64
2022-12-10T23:24:08.735Z,99937.33
2022-12-10T23:26:43.980Z,99939.45
2022-12-10T23:29:17.369Z,99939.13
2022-12-10T23:31:48.314Z,99942.61
2022-12-10T23:34:21.734Z,99944.23
2022-12-10T23:36:59.006Z,99940.24
2022-12-10T23:39:29.532Z,99943.45
2022-12-10T23:41:59.827Z,99941.52
2022-12-10T23:44:30.415Z,99938.38
2022-12-10T23:47:00.805Z,99933.55
2022-12-10T23:49:32.470Z,99928.50
2022-12-10T23:52:09.316Z,99924.26
2022-12-10T23:54:40.344Z,99924.56
2022-12-10T23:57:10.916Z,99923.90
2022-12-10T23:59:41.679Z,99928.97
